createdAt,value
2023-03-22T00:01:28.766Z,79.27
2023-03-22T00:03:57.000Z,79.16
2023-03-22T00:06:25.635Z,79.44
2023-03-22T00:08:55.130Z,79.41
2023-03-22T00:11:25.971Z,79.48
2023-03-22T00:13:55.016Z,79.54
2023-03-22T00:16:23.593Z,79.53
2023-03-22T00:18:51.830Z,79.16
2023-03-22T00:21:20.027Z,79.05
2023-03-22T00:23:48.169Z,79.15
2023-03-22T00:26:16.446Z,79.06
2023-03-22T00:28:46.677Z,79.06
2023-03-22T00:31:15.984Z,79.43
2023-03-22T00:33:44.168Z,79.25
2023-03-22T00:36:13.886Z,79.66
2023-03-22T00:38:43.968Z,79.48
2023-03-22T00:41:14.083Z,79.44
2023-03-22T00:43:42.541Z,79.83
2023-03-22T00:46:13.518Z,79.96
2023-03-22T00:48:42.035Z,79.83
2023-03-22T00:51:12.775Z,80.07
2023-03-22T00:53:43.522Z,79.89
2023-03-22T00:56:15.890Z,80.12
2023-03-22T00:58:57.060Z,79.57
2023-03-22T01:01:26.922Z,79.77
2023-03-22T01:03:56.017Z,79.58
2023-03-22T01:06:24.132Z,79.51
2023-03-22T01:08:55.257Z,79.93
2023-03-22T01:11:23.497Z,79.81
2023-03-22T01:13:57.663Z,80.59
2023-03-22T01:16:27.760Z,80.59
2023-03-22T01:18:55.897Z,80.96
2023-03-22T01:21:24.032Z,81.41
2023-03-22T01:23:52.146Z,81.35
2023-03-22T01:26:20.287Z,81.82
2023-03-22T01:28:48.359Z,81.88
2023-03-22T01:31:16.513Z,81.88
2023-03-22T01:33:46.125Z,82.10
2023-03-22T01:36:14.244Z,83.33
2023-03-22T01:38:42.371Z,82.94
2023-03-22T01:41:10.553Z,82.41
2023-03-22T01:43:41.901Z,82.56
2023-03-22T01:46:10.321Z,82.36
2023-03-22T01:48:46.271Z,82.96
2023-03-22T01:51:19.241Z,82.51
2023-03-22T01:54:25.722Z,82.70
2023-03-22T01:56:54.175Z,82.68
2023-03-22T01:59:32.676Z,82.44
2023-03-22T02:02:19.244Z,82.90
2023-03-22T02:04:58.193Z,82.53
2023-03-22T02:07:31.918Z,82.18
2023-03-22T02:10:02.474Z,82.44
2023-03-22T02:12:53.596Z,82.83
2023-03-22T02:15:42.876Z,82.80
2023-03-22T02:18:44.958Z,82.40
2023-03-22T02:21:46.020Z,82.46
2023-03-22T02:24:48.301Z,81.81
2023-03-22T02:27:48.065Z,81.85
2023-03-22T02:30:45.912Z,81.72
2023-03-22T02:33:41.559Z,82.12
2023-03-22T02:36:31.016Z,82.39
2023-03-22T02:39:15.558Z,83.01
2023-03-22T02:42:05.000Z,82.41
2023-03-22T02:44:42.246Z,82.72
2023-03-22T02:47:22.433Z,82.09
2023-03-22T02:49:57.500Z,82.23
2023-03-22T02:52:31.900Z,82.52
2023-03-22T02:55:08.985Z,83.39
2023-03-22T02:57:42.006Z,83.81
2023-03-22T03:00:14.240Z,83.12
2023-03-22T03:02:45.430Z,82.96
2023-03-22T03:05:16.234Z,81.95
2023-03-22T03:07:47.802Z,82.16
2023-03-22T03:10:19.728Z,82.50
2023-03-22T03:12:48.050Z,82.09
2023-03-22T03:15:18.635Z,83.13
2023-03-22T03:17:58.685Z,83.82
2023-03-22T03:20:39.007Z,82.38
2023-03-22T03:23:17.787Z,83.94
2023-03-22T03:25:59.070Z,83.67
2023-03-22T03:28:38.470Z,84.13
2023-03-22T03:31:19.797Z,84.19
2023-03-22T03:33:56.288Z,82.38
2023-03-22T03:36:27.420Z,83.33
2023-03-22T03:38:58.010Z,82.44
2023-03-22T03:41:31.334Z,82.25
2023-03-22T03:44:00.654Z,82.20
2023-03-22T03:46:29.529Z,83.07
2023-03-22T03:48:59.366Z,83.68
2023-03-22T03:51:28.761Z,83.93
2023-03-22T03:53:56.867Z,84.50
2023-03-22T03:56:25.184Z,84.49
2023-03-22T03:58:55.769Z,84.74
2023-03-22T04:01:24.251Z,85.01
2023-03-22T04:04:15.342Z,84.92
2023-03-22T04:06:56.838Z,84.75
2023-03-22T04:09:27.512Z,84.67
2023-03-22T04:12:00.823Z,84.74
2023-03-22T04:14:30.473Z,84.68
2023-03-22T04:17:02.596Z,84.97
2023-03-22T04:19:32.623Z,84.86
2023-03-22T04:22:01.183Z,84.78
2023-03-22T04:24:29.446Z,84.76
2023-03-22T04:26:57.572Z,85.20
2023-03-22T04:29:32.360Z,85.37
2023-03-22T04:32:16.622Z,84.61
2023-03-22T04:34:44.934Z,84.90
2023-03-22T04:37:15.657Z,84.21
2023-03-22T04:39:50.617Z,84.76
2023-03-22T04:42:32.437Z,84.51
2023-03-22T04:45:29.318Z,84.77
2023-03-22T04:48:01.874Z,84.80
2023-03-22T04:50:32.365Z,85.00
2023-03-22T04:53:04.085Z,84.73
2023-03-22T04:55:34.224Z,84.74
2023-03-22T04:58:03.421Z,84.76
2023-03-22T05:00:32.914Z,84.47
2023-03-22T05:03:04.172Z,84.14
2023-03-22T05:05:41.352Z,83.81
2023-03-22T05:08:09.725Z,83.86
2023-03-22T05:10:41.414Z,83.37
2023-03-22T05:13:10.055Z,83.42
2023-03-22T05:15:44.418Z,83.97
2023-03-22T05:18:15.547Z,83.30
2023-03-22T05:20:45.666Z,84.24
2023-03-22T05:23:19.502Z,83.89
2023-03-22T05:25:52.333Z,83.34
2023-03-22T05:28:22.513Z,83.14
2023-03-22T05:31:15.584Z,84.11
2023-03-22T05:33:50.531Z,84.12
2023-03-22T05:36:23.001Z,84.19
2023-03-22T05:39:10.879Z,84.08
2023-03-22T05:41:39.161Z,83.52
2023-03-22T05:44:07.529Z,84.05
2023-03-22T05:46:39.791Z,84.90
2023-03-22T05:49:31.148Z,85.30
2023-03-22T05:51:59.359Z,85.11
2023-03-22T05:54:38.435Z,84.46
2023-03-22T05:57:07.427Z,84.56
2023-03-22T05:59:35.517Z,84.13
2023-03-22T06:02:05.711Z,84.05
2023-03-22T06:04:33.793Z,82.48
2023-03-22T06:07:06.435Z,82.88
2023-03-22T06:09:54.523Z,82.13
2023-03-22T06:12:27.223Z,80.69
2023-03-22T06:15:13.041Z,81.34
2023-03-22T06:17:58.822Z,80.75
2023-03-22T06:20:29.699Z,80.92
2023-03-22T06:23:03.416Z,79.66
2023-03-22T06:25:31.624Z,79.14
2023-03-22T06:28:00.664Z,79.96
2023-03-22T06:30:30.496Z,79.26
2023-03-22T06:33:14.727Z,79.27
2023-03-22T06:35:46.351Z,78.49
2023-03-22T06:38:20.841Z,78.36
2023-03-22T06:40:49.085Z,78.61
2023-03-22T06:43:17.300Z,79.06
2023-03-22T06:45:48.806Z,78.13
2023-03-22T06:48:23.733Z,77.51
2023-03-22T06:51:06.503Z,77.41
2023-03-22T06:53:36.512Z,77.73
2023-03-22T06:56:06.083Z,77.55
2023-03-22T06:58:45.049Z,77.47
2023-03-22T07:01:13.136Z,77.01
2023-03-22T07:03:42.817Z,76.87
2023-03-22T07:06:14.912Z,77.25
2023-03-22T07:08:46.952Z,77.63
2023-03-22T07:11:19.060Z,77.74
2023-03-22T07:13:51.809Z,77.92
2023-03-22T07:16:22.920Z,77.74
2023-03-22T07:18:56.013Z,77.29
2023-03-22T07:21:24.692Z,76.50
2023-03-22T07:23:58.289Z,76.23
2023-03-22T07:26:30.632Z,75.87
2023-03-22T07:29:00.107Z,75.57
2023-03-22T07:31:31.687Z,75.32
2023-03-22T07:34:06.948Z,75.05
2023-03-22T07:36:58.061Z,75.28
2023-03-22T07:39:28.974Z,74.54
2023-03-22T07:41:57.550Z,74.96
2023-03-22T07:44:25.629Z,74.65
2023-03-22T07:47:12.758Z,74.13
2023-03-22T07:49:49.658Z,73.86
2023-03-22T07:52:21.875Z,72.78
2023-03-22T07:54:50.269Z,72.68
2023-03-22T07:57:18.814Z,72.82
2023-03-22T07:59:53.075Z,74.39
2023-03-22T08:02:21.440Z,74.46
2023-03-22T08:04:56.507Z,73.58
2023-03-22T08:07:42.410Z,73.56
2023-03-22T08:10:12.820Z,74.77
2023-03-22T08:12:41.379Z,74.23
2023-03-22T08:15:16.687Z,73.10
2023-03-22T08:17:45.477Z,72.31
2023-03-22T08:20:21.197Z,72.38
2023-03-22T08:22:55.553Z,72.38
2023-03-22T08:25:49.719Z,71.98
2023-03-22T08:28:17.895Z,72.02
2023-03-22T08:30:48.183Z,70.07
2023-03-22T08:33:17.149Z,72.41
2023-03-22T08:35:48.107Z,70.10
2023-03-22T08:38:16.257Z,68.99
2023-03-22T08:40:48.715Z,68.73
2023-03-22T08:43:20.764Z,68.64
2023-03-22T08:45:49.026Z,68.83
2023-03-22T08:48:20.842Z,67.56
2023-03-22T08:51:06.578Z,65.83
2023-03-22T08:53:49.740Z,66.09
2023-03-22T08:56:41.892Z,65.63
2023-03-22T08:59:20.504Z,65.46
2023-03-22T09:01:59.055Z,63.00
2023-03-22T09:04:27.442Z,62.95
2023-03-22T09:06:57.614Z,61.91
2023-03-22T09:09:25.744Z,62.25
2023-03-22T09:11:56.312Z,61.79
2023-03-22T09:14:24.802Z,60.52
2023-03-22T09:16:54.459Z,60.43
2023-03-22T09:19:22.707Z,61.07
2023-03-22T09:21:51.089Z,59.06
2023-03-22T09:24:31.536Z,58.97
2023-03-22T09:27:03.432Z,57.94
2023-03-22T09:29:31.931Z,57.93
2023-03-22T09:32:03.477Z,58.07
2023-03-22T09:34:35.004Z,59.53
2023-03-22T09:37:04.941Z,60.82
2023-03-22T09:39:44.838Z,60.11
2023-03-22T09:42:25.878Z,60.07
2023-03-22T09:44:56.157Z,61.48
2023-03-22T09:47:44.164Z,58.92
2023-03-22T09:50:16.512Z,59.01
2023-03-22T09:52:45.160Z,60.81
2023-03-22T09:55:20.744Z,62.11
2023-03-22T09:57:56.283Z,59.25
2023-03-22T10:00:34.599Z,57.77
2023-03-22T10:03:14.007Z,57.13
2023-03-22T10:05:48.289Z,57.66
2023-03-22T10:08:31.171Z,54.61
2023-03-22T10:11:01.540Z,54.38
2023-03-22T10:13:37.750Z,53.82
2023-03-22T10:16:11.772Z,53.08
2023-03-22T10:18:43.827Z,52.98
2023-03-22T10:21:14.484Z,52.66
2023-03-22T10:23:45.890Z,51.88
2023-03-22T10:26:23.980Z,52.91
2023-03-22T10:29:03.506Z,52.49
2023-03-22T10:31:32.859Z,52.50
2023-03-22T10:34:08.366Z,52.12
2023-03-22T10:36:42.476Z,52.99
2023-03-22T10:39:17.304Z,52.42
2023-03-22T10:41:48.633Z,52.60
2023-03-22T10:44:20.534Z,52.45
2023-03-22T10:46:52.054Z,52.12
2023-03-22T10:49:26.180Z,53.41
2023-03-22T10:51:59.910Z,53.13
2023-03-22T10:54:28.161Z,54.03
2023-03-22T10:56:57.637Z,53.04
2023-03-22T10:59:48.392Z,52.29
2023-03-22T11:02:22.251Z,53.48
2023-03-22T11:04:52.646Z,53.53
2023-03-22T11:07:39.423Z,52.09
2023-03-22T11:10:21.856Z,51.16
2023-03-22T11:12:54.418Z,48.90
2023-03-22T11:15:29.948Z,49.08
2023-03-22T11:18:06.557Z,48.98
2023-03-22T11:20:36.542Z,49.43
2023-03-22T11:23:07.027Z,49.82
2023-03-22T11:25:37.668Z,48.48
2023-03-22T11:28:16.637Z,48.41
2023-03-22T11:31:00.462Z,49.40
2023-03-22T11:33:28.858Z,49.87
2023-03-22T11:35:58.227Z,49.49
2023-03-22T11:38:30.622Z,48.94
2023-03-22T11:41:02.687Z,48.97
2023-03-22T11:43:37.005Z,49.30
2023-03-22T11:46:06.394Z,49.99
2023-03-22T11:48:36.702Z,49.20
2023-03-22T11:51:09.771Z,48.60
2023-03-22T11:53:40.931Z,50.19
2023-03-22T11:56:12.086Z,49.55
2023-03-22T11:58:56.387Z,48.80
2023-03-22T12:01:34.532Z,47.48
2023-03-22T12:04:06.440Z,49.04
2023-03-22T12:06:39.226Z,51.79
2023-03-22T12:09:22.898Z,52.31
2023-03-22T12:11:54.313Z,51.61
2023-03-22T12:14:29.273Z,50.29
2023-03-22T12:16:59.748Z,50.85
2023-03-22T12:19:43.546Z,52.26
2023-03-22T12:22:14.393Z,50.86
2023-03-22T12:24:43.273Z,50.13
2023-03-22T12:27:18.680Z,48.66
2023-03-22T12:29:54.803Z,48.57
2023-03-22T12:32:27.667Z,48.37
2023-03-22T12:35:16.044Z,47.01
2023-03-22T12:37:49.697Z,45.91
2023-03-22T12:40:24.451Z,45.01
2023-03-22T12:43:02.294Z,46.48
2023-03-22T12:45:37.165Z,46.88
2023-03-22T12:48:11.440Z,46.22
2023-03-22T12:50:44.479Z,44.68
2023-03-22T12:53:16.475Z,44.62
2023-03-22T12:55:46.241Z,43.62
2023-03-22T12:58:18.178Z,44.57
2023-03-22T13:00:51.004Z,45.00
2023-03-22T13:03:28.975Z,43.57
2023-03-22T13:06:07.717Z,44.03
2023-03-22T13:09:13.215Z,44.33
2023-03-22T13:11:41.338Z,46.00
2023-03-22T13:14:12.986Z,44.76
2023-03-22T13:16:52.596Z,44.38
2023-03-22T13:19:38.037Z,45.86
2023-03-22T13:22:21.130Z,44.81
2023-03-22T13:25:29.717Z,44.28
2023-03-22T13:28:00.091Z,44.10
2023-03-22T13:30:33.357Z,43.31
2023-03-22T13:33:14.321Z,44.54
2023-03-22T13:35:46.580Z,43.30
2023-03-22T13:38:22.308Z,43.62
2023-03-22T13:41:00.789Z,43.65
2023-03-22T13:43:32.757Z,43.50
2023-03-22T13:46:29.435Z,42.50
2023-03-22T13:49:26.534Z,43.44
2023-03-22T13:51:56.916Z,44.93
2023-03-22T13:54:28.732Z,45.13
2023-03-22T13:57:00.909Z,46.52
2023-03-22T13:59:33.890Z,46.18
2023-03-22T14:02:05.921Z,45.82
2023-03-22T14:04:42.686Z,45.00
2023-03-22T14:07:24.198Z,45.83
2023-03-22T14:09:55.768Z,45.25
2023-03-22T14:12:29.742Z,43.96
2023-03-22T14:15:02.601Z,43.68
2023-03-22T14:17:36.276Z,46.34
2023-03-22T14:20:10.701Z,46.50
